createdAt,value
2019-03-26T00:00:32.992Z,1.50
2019-03-26T00:03:02.852Z,1.67
2019-03-26T00:05:31.464Z,1.80
2019-03-26T00:08:00.158Z,1.73
2019-03-26T00:10:30.691Z,1.43
2019-03-26T00:12:59.327Z,1.90
2019-03-26T00:15:27.960Z,1.53
2019-03-26T00:17:56.499Z,1.53
2019-03-26T00:20:25.191Z,1.53
2019-03-26T00:22:53.809Z,1.80
2019-03-26T00:25:22.548Z,1.80
2019-03-26T00:27:51.138Z,1.70
2019-03-26T00:30:19.851Z,1.70
2019-03-26T00:32:48.369Z,2.00
2019-03-26T00:35:17.017Z,2.07
2019-03-26T00:37:45.851Z,1.80
2019-03-26T00:40:14.928Z,1.90
2019-03-26T00:42:43.533Z,2.13
2019-03-26T00:45:13.428Z,2.17
2019-03-26T00:47:42.210Z,2.10
2019-03-26T00:50:11.212Z,1.97
2019-03-26T00:52:39.974Z,2.50
2019-03-26T00:55:21.651Z,2.90
2019-03-26T00:57:40.237Z,2.60
2019-03-26T01:00:09.843Z,2.50
2019-03-26T01:02:38.593Z,3.00
2019-03-26T01:05:08.549Z,2.43
2019-03-26T01:07:37.231Z,2.27
2019-03-26T01:10:07.205Z,2.07
2019-03-26T01:12:35.905Z,1.90
2019-03-26T01:15:06.849Z,1.93
2019-03-26T01:17:35.465Z,1.63
2019-03-26T01:20:06.454Z,1.70
2019-03-26T01:22:35.259Z,1.90
2019-03-26T01:25:04.736Z,1.60
2019-03-26T01:27:33.369Z,1.53
2019-03-26T01:30:02.096Z,1.60
2019-03-26T01:32:30.945Z,2.20
2019-03-26T01:34:59.579Z,1.80
2019-03-26T01:37:28.235Z,1.73
2019-03-26T01:39:56.897Z,1.90
2019-03-26T01:42:25.483Z,1.97
2019-03-26T01:44:54.027Z,2.00
2019-03-26T01:47:22.650Z,1.80
2019-03-26T01:49:51.399Z,2.07
2019-03-26T01:52:20.161Z,2.00
2019-03-26T01:54:48.837Z,1.70
2019-03-26T01:57:17.678Z,2.10
2019-03-26T01:59:46.315Z,2.23
2019-03-26T02:02:14.829Z,1.80
2019-03-26T02:04:43.656Z,2.10
2019-03-26T02:07:12.207Z,2.10
2019-03-26T02:09:40.805Z,1.80
2019-03-26T02:12:09.377Z,1.80
2019-03-26T02:14:37.959Z,1.80
2019-03-26T02:17:06.531Z,1.90
2019-03-26T02:19:35.287Z,1.80
2019-03-26T02:22:04.030Z,2.20
2019-03-26T02:24:32.635Z,2.10
2019-03-26T02:27:01.689Z,1.93
2019-03-26T02:29:30.341Z,2.10
2019-03-26T02:31:58.959Z,1.93
2019-03-26T02:34:27.544Z,2.03
2019-03-26T02:36:56.219Z,2.20
2019-03-26T02:39:24.908Z,2.50
2019-03-26T02:41:53.494Z,2.20
2019-03-26T02:44:22.288Z,1.80
2019-03-26T02:46:51.237Z,2.30
2019-03-26T02:49:19.958Z,1.97
2019-03-26T02:51:48.565Z,2.10
2019-03-26T02:54:17.189Z,2.13
2019-03-26T02:56:45.792Z,2.03
2019-03-26T02:59:14.505Z,2.07
2019-03-26T03:01:43.254Z,2.10
2019-03-26T03:04:11.843Z,2.27
2019-03-26T03:06:40.372Z,2.10
2019-03-26T03:09:09.581Z,1.93
2019-03-26T03:11:38.332Z,2.20
2019-03-26T03:14:06.906Z,2.10
2019-03-26T03:16:35.403Z,1.80
2019-03-26T03:19:04.239Z,2.10
2019-03-26T03:21:32.917Z,2.17
2019-03-26T03:24:01.630Z,2.10
2019-03-26T03:26:30.321Z,1.87
2019-03-26T03:28:58.850Z,2.40
2019-03-26T03:31:27.484Z,2.17
2019-03-26T03:33:56.211Z,2.13
2019-03-26T03:36:24.822Z,2.03
2019-03-26T03:38:53.664Z,2.13
2019-03-26T03:41:22.172Z,2.23
2019-03-26T03:43:50.727Z,2.40
2019-03-26T03:46:19.613Z,2.77
2019-03-26T03:48:49.029Z,2.80
2019-03-26T03:51:19.932Z,3.00
2019-03-26T03:53:48.799Z,2.90
2019-03-26T03:56:19.974Z,3.20
2019-03-26T03:58:50.398Z,3.50
2019-03-26T04:01:18.873Z,2.77
2019-03-26T04:03:47.506Z,3.00
2019-03-26T04:06:16.213Z,2.17
2019-03-26T04:08:44.915Z,2.60
2019-03-26T04:11:13.533Z,2.00
2019-03-26T04:13:42.352Z,2.63
2019-03-26T04:16:11.087Z,2.80
2019-03-26T04:18:39.523Z,2.40
2019-03-26T04:21:08.085Z,2.50
2019-03-26T04:23:36.843Z,2.57
2019-03-26T04:26:05.426Z,2.73
2019-03-26T04:28:34.194Z,2.40
2019-03-26T04:31:02.862Z,2.70
2019-03-26T04:33:31.615Z,2.83
2019-03-26T04:36:00.335Z,2.83
2019-03-26T04:38:29.093Z,2.60
2019-03-26T04:40:57.843Z,2.40
2019-03-26T04:43:26.441Z,2.80
2019-03-26T04:45:55.056Z,2.60
2019-03-26T04:48:23.760Z,3.00
2019-03-26T04:50:52.405Z,2.87
2019-03-26T04:53:20.975Z,2.30
2019-03-26T04:55:49.490Z,2.30
2019-03-26T04:58:18.113Z,2.97
2019-03-26T05:00:46.648Z,2.63
2019-03-26T05:03:15.340Z,2.70
2019-03-26T05:05:44.530Z,2.77
2019-03-26T05:08:13.149Z,2.90
2019-03-26T05:10:41.629Z,2.90
2019-03-26T05:13:10.277Z,2.50
2019-03-26T05:15:38.782Z,2.40
2019-03-26T05:18:07.452Z,2.87
2019-03-26T05:20:35.948Z,2.70
2019-03-26T05:23:04.634Z,2.37
2019-03-26T05:25:33.318Z,2.83
2019-03-26T05:28:02.112Z,2.67
2019-03-26T05:30:33.002Z,2.90
2019-03-26T05:33:01.122Z,2.97
2019-03-26T05:35:29.885Z,2.57
2019-03-26T05:37:58.436Z,2.70
2019-03-26T05:40:27.124Z,3.43
2019-03-26T05:42:55.707Z,3.13
2019-03-26T05:45:24.531Z,3.07
2019-03-26T05:47:53.103Z,3.07
2019-03-26T05:50:21.743Z,3.00
2019-03-26T05:52:50.363Z,3.03
2019-03-26T05:55:19.218Z,3.17
2019-03-26T05:57:48.031Z,2.80
2019-03-26T06:00:18.838Z,2.90
2019-03-26T06:02:47.556Z,2.97
2019-03-26T06:05:16.001Z,3.07
2019-03-26T06:07:44.687Z,3.20
2019-03-26T06:10:13.965Z,3.43
2019-03-26T06:12:42.733Z,3.43
2019-03-26T06:15:12.379Z,3.80
2019-03-26T06:17:40.970Z,3.60
2019-03-26T06:20:12.222Z,3.43
2019-03-26T06:22:40.819Z,3.60
2019-03-26T06:25:09.984Z,3.93
2019-03-26T06:27:38.636Z,3.83
2019-03-26T06:30:08.777Z,3.67
2019-03-26T06:32:37.747Z,3.83
2019-03-26T06:35:08.495Z,4.40
2019-03-26T06:37:37.416Z,4.00
2019-03-26T06:40:08.430Z,4.60
2019-03-26T06:42:37.346Z,5.13
2019-03-26T06:45:09.583Z,5.00
2019-03-26T06:47:38.223Z,4.80
2019-03-26T06:50:11.304Z,4.83
2019-03-26T06:52:40.024Z,5.83
2019-03-26T06:55:09.270Z,5.60
2019-03-26T06:57:38.063Z,6.07
2019-03-26T07:00:09.607Z,5.83
2019-03-26T07:02:38.520Z,5.23
2019-03-26T07:05:07.746Z,4.67
2019-03-26T07:07:36.608Z,4.90
2019-03-26T07:10:07.443Z,5.17
2019-03-26T07:12:36.027Z,4.77
2019-03-26T07:15:06.639Z,5.10
2019-03-26T07:17:35.294Z,4.67
2019-03-26T07:20:05.970Z,5.20
2019-03-26T07:22:34.559Z,4.77
2019-03-26T07:25:03.817Z,5.00
2019-03-26T07:27:32.615Z,4.77
2019-03-26T07:30:01.340Z,5.17
2019-03-26T07:32:30.395Z,4.43
2019-03-26T07:34:59.048Z,4.70
2019-03-26T07:37:27.780Z,5.20
2019-03-26T07:39:56.556Z,4.73
2019-03-26T07:42:25.219Z,6.10
2019-03-26T07:44:54.063Z,5.47
2019-03-26T07:47:22.598Z,5.70
2019-03-26T07:49:51.355Z,5.10
2019-03-26T07:52:20.062Z,5.50
2019-03-26T07:54:48.692Z,4.70
2019-03-26T07:57:17.701Z,4.77
2019-03-26T07:59:46.405Z,4.60
2019-03-26T08:02:15.241Z,5.50
2019-03-26T08:04:43.836Z,5.23
2019-03-26T08:07:12.434Z,4.63
2019-03-26T08:09:41.514Z,4.83
2019-03-26T08:12:10.280Z,4.53
2019-03-26T08:14:39.090Z,5.77
2019-03-26T08:17:07.954Z,4.50
2019-03-26T08:19:36.557Z,4.60
2019-03-26T08:22:05.276Z,4.83
2019-03-26T08:24:34.232Z,5.20
2019-03-26T08:27:02.948Z,5.40
2019-03-26T08:29:31.496Z,6.00
2019-03-26T08:32:00.308Z,5.57
2019-03-26T08:34:29.012Z,4.80
2019-03-26T08:36:57.864Z,5.23
2019-03-26T08:39:26.677Z,5.20
2019-03-26T08:41:55.606Z,4.80
2019-03-26T08:44:24.293Z,5.43
2019-03-26T08:46:52.874Z,4.80
2019-03-26T08:49:21.915Z,4.60
2019-03-26T08:51:50.490Z,4.90
2019-03-26T08:54:19.000Z,5.20
2019-03-26T08:56:47.570Z,4.90
2019-03-26T08:59:16.176Z,4.90
2019-03-26T09:01:45.144Z,4.70
2019-03-26T09:04:14.017Z,4.40
2019-03-26T09:06:42.701Z,4.33
2019-03-26T09:09:11.315Z,4.30
2019-03-26T09:11:40.076Z,4.17
2019-03-26T09:14:08.727Z,3.93
2019-03-26T09:16:37.444Z,3.13
2019-03-26T09:19:06.287Z,3.40
2019-03-26T09:21:34.935Z,3.47
2019-03-26T09:24:03.622Z,3.60
2019-03-26T09:26:32.226Z,2.90
2019-03-26T09:29:00.871Z,3.63
2019-03-26T09:31:29.705Z,3.80
2019-03-26T09:33:58.422Z,3.20
2019-03-26T09:36:27.015Z,2.80
2019-03-26T09:38:56.901Z,3.37
2019-03-26T09:41:25.765Z,4.17
2019-03-26T09:43:54.301Z,3.80
2019-03-26T09:46:23.154Z,3.10
2019-03-26T09:48:51.840Z,3.30
2019-03-26T09:51:20.651Z,3.57
2019-03-26T09:53:49.220Z,3.77
2019-03-26T09:56:28.295Z,3.20
2019-03-26T09:58:48.113Z,3.00
2019-03-26T10:01:16.957Z,3.60
2019-03-26T10:03:45.618Z,3.47
2019-03-26T10:06:23.407Z,3.90
2019-03-26T10:08:52.413Z,3.43
2019-03-26T10:11:15.021Z,3.60
2019-03-26T10:13:43.682Z,3.40
2019-03-26T10:16:12.333Z,3.90
2019-03-26T10:18:40.885Z,3.80
2019-03-26T10:21:09.540Z,3.53
2019-03-26T10:23:38.047Z,3.73
2019-03-26T10:26:06.582Z,3.23
2019-03-26T10:28:35.116Z,3.30
2019-03-26T10:31:03.861Z,3.60
2019-03-26T10:33:32.640Z,3.83
2019-03-26T10:36:01.183Z,3.80
2019-03-26T10:38:29.908Z,3.60
2019-03-26T10:40:58.400Z,3.57
2019-03-26T10:43:27.526Z,4.00
2019-03-26T10:45:56.500Z,3.73
2019-03-26T10:48:25.157Z,3.93
2019-03-26T10:50:53.786Z,3.83
2019-03-26T10:53:22.286Z,3.97
2019-03-26T10:55:51.778Z,3.60
2019-03-26T10:58:20.474Z,4.17
2019-03-26T11:00:49.009Z,4.27
2019-03-26T11:03:17.519Z,4.23
2019-03-26T11:05:46.300Z,4.40
2019-03-26T11:08:15.017Z,4.37
2019-03-26T11:10:43.900Z,4.50
2019-03-26T11:13:12.420Z,5.03
2019-03-26T11:15:41.230Z,5.10
2019-03-26T11:18:09.896Z,4.70
2019-03-26T11:20:38.478Z,4.80
2019-03-26T11:23:07.036Z,4.30
2019-03-26T11:25:35.826Z,3.70
2019-03-26T11:28:04.617Z,3.53
2019-03-26T11:30:33.379Z,3.63
2019-03-26T11:33:01.895Z,4.07
2019-03-26T11:35:30.668Z,3.90
2019-03-26T11:37:59.283Z,3.70
2019-03-26T11:40:28.004Z,3.83
2019-03-26T11:42:56.791Z,4.03
2019-03-26T11:45:25.462Z,4.00
2019-03-26T11:47:54.177Z,3.70
2019-03-26T11:50:23.370Z,3.97
2019-03-26T11:52:52.152Z,4.10
2019-03-26T11:55:21.960Z,3.80
2019-03-26T11:57:50.703Z,3.33
2019-03-26T12:00:25.587Z,3.37
2019-03-26T12:02:54.252Z,3.13
2019-03-26T12:05:23.026Z,3.07
2019-03-26T12:07:51.687Z,3.30
2019-03-26T12:10:20.256Z,2.90
2019-03-26T12:12:48.773Z,3.50
2019-03-26T12:15:17.723Z,2.97
2019-03-26T12:17:46.364Z,3.30
2019-03-26T12:20:15.842Z,3.03
2019-03-26T12:22:44.452Z,2.53
2019-03-26T12:25:13.423Z,3.30
2019-03-26T12:27:41.982Z,3.30
2019-03-26T12:30:11.185Z,3.20
2019-03-26T12:32:41.029Z,3.40
2019-03-26T12:35:13.211Z,3.23
2019-03-26T12:37:41.830Z,4.07
2019-03-26T12:40:10.668Z,3.47
2019-03-26T12:42:39.262Z,3.07
2019-03-26T12:45:08.508Z,3.17
2019-03-26T12:47:37.220Z,3.97
2019-03-26T12:50:07.849Z,3.57
2019-03-26T12:52:36.514Z,3.40
2019-03-26T12:55:06.095Z,3.20
2019-03-26T12:57:34.646Z,2.83
2019-03-26T13:00:04.462Z,2.67
2019-03-26T13:02:35.662Z,2.97
2019-03-26T13:05:04.128Z,2.60
2019-03-26T13:07:32.662Z,2.70
2019-03-26T13:10:12.899Z,3.10
2019-03-26T13:12:31.639Z,2.80
2019-03-26T13:15:00.431Z,2.40
2019-03-26T13:17:29.088Z,2.97
2019-03-26T13:19:57.650Z,3.10
2019-03-26T13:22:26.526Z,2.50
2019-03-26T13:24:55.126Z,2.40
2019-03-26T13:27:23.860Z,2.80
2019-03-26T13:29:52.626Z,2.40
2019-03-26T13:32:21.211Z,2.33
2019-03-26T13:34:49.910Z,3.17
2019-03-26T13:37:21.647Z,2.80
2019-03-26T13:39:48.900Z,2.90
2019-03-26T13:42:17.479Z,3.10
2019-03-26T13:44:46.104Z,2.93
2019-03-26T13:47:14.716Z,2.70
2019-03-26T13:49:43.377Z,3.17
2019-03-26T13:52:11.971Z,3.30
2019-03-26T13:54:40.773Z,3.50
2019-03-26T13:57:09.335Z,2.90
2019-03-26T13:59:37.867Z,2.90
2019-03-26T14:02:06.696Z,2.93
2019-03-26T14:04:35.433Z,3.20
2019-03-26T14:07:04.061Z,3.07
2019-03-26T14:09:32.683Z,2.97
2019-03-26T14:12:01.208Z,3.00
2019-03-26T14:14:29.850Z,2.27
2019-03-26T14:16:58.604Z,2.63
2019-03-26T14:19:27.513Z,2.13
2019-03-26T14:21:56.297Z,2.67
2019-03-26T14:24:24.867Z,2.47
2019-03-26T14:26:53.448Z,2.17
2019-03-26T14:29:24.578Z,2.33
2019-03-26T14:31:52.635Z,2.93
2019-03-26T14:34:21.243Z,2.27
2019-03-26T14:36:50.052Z,2.00
2019-03-26T14:39:18.553Z,2.53
2019-03-26T14:41:47.096Z,2.30
2019-03-26T14:44:15.977Z,2.40
2019-03-26T14:46:44.479Z,2.80
2019-03-26T14:49:13.120Z,2.80
2019-03-26T14:51:41.823Z,2.80
2019-03-26T14:54:10.449Z,3.80
2019-03-26T14:56:38.978Z,2.70
2019-03-26T14:59:07.645Z,2.63
2019-03-26T15:01:36.513Z,2.83
2019-03-26T15:04:05.053Z,2.90
2019-03-26T15:06:33.745Z,2.53
2019-03-26T15:09:02.539Z,3.33
2019-03-26T15:11:31.010Z,2.70
2019-03-26T15:13:59.755Z,2.37
2019-03-26T15:16:28.441Z,2.13
2019-03-26T15:18:57.059Z,2.20
2019-03-26T15:21:25.692Z,2.63
2019-03-26T15:23:54.498Z,2.20
2019-03-26T15:26:23.194Z,2.33
2019-03-26T15:28:51.843Z,2.87
2019-03-26T15:31:20.525Z,2.13
2019-03-26T15:33:49.035Z,2.33
2019-03-26T15:36:17.739Z,2.40
2019-03-26T15:38:46.376Z,2.20
2019-03-26T15:41:21.387Z,2.00
2019-03-26T15:43:45.619Z,2.77
2019-03-26T15:46:14.139Z,2.43
2019-03-26T15:48:42.685Z,2.37
2019-03-26T15:51:11.675Z,2.47
2019-03-26T15:53:40.423Z,2.00
2019-03-26T15:56:09.320Z,2.10
2019-03-26T15:58:37.895Z,2.07
2019-03-26T16:01:06.439Z,2.20
2019-03-26T16:03:35.164Z,2.00
2019-03-26T16:06:03.832Z,2.10
2019-03-26T16:08:35.806Z,2.10
2019-03-26T16:11:02.930Z,2.40
2019-03-26T16:13:31.453Z,1.90
2019-03-26T16:15:59.896Z,2.27
2019-03-26T16:18:28.477Z,2.50
2019-03-26T16:20:57.174Z,2.20
2019-03-26T16:23:25.729Z,1.83
2019-03-26T16:25:54.236Z,2.30
2019-03-26T16:28:22.934Z,2.67
2019-03-26T16:30:51.441Z,2.53
2019-03-26T16:33:19.982Z,2.30
2019-03-26T16:35:48.497Z,2.20
2019-03-26T16:38:16.964Z,2.17
2019-03-26T16:40:45.462Z,2.20
2019-03-26T16:43:14.070Z,2.53
2019-03-26T16:45:42.854Z,3.03
2019-03-26T16:48:11.371Z,2.53
2019-03-26T16:50:40.145Z,2.80
2019-03-26T16:53:08.795Z,2.90
2019-03-26T16:55:37.420Z,2.40
2019-03-26T16:58:06.400Z,2.87
2019-03-26T17:00:35.215Z,3.57
2019-03-26T17:03:03.815Z,3.33
2019-03-26T17:05:32.495Z,3.10
2019-03-26T17:08:01.253Z,2.70
2019-03-26T17:10:29.962Z,2.90
2019-03-26T17:12:58.608Z,3.87
2019-03-26T17:15:27.301Z,3.30
2019-03-26T17:17:55.902Z,2.73
2019-03-26T17:20:24.632Z,3.40
2019-03-26T17:22:53.477Z,3.10
2019-03-26T17:25:22.095Z,3.60
2019-03-26T17:27:50.779Z,3.23
2019-03-26T17:30:19.787Z,3.33
2019-03-26T17:32:48.445Z,3.60
2019-03-26T17:35:17.299Z,3.90
2019-03-26T17:37:59.544Z,4.10
2019-03-26T17:40:22.207Z,3.80
2019-03-26T17:42:51.239Z,3.57
2019-03-26T17:45:20.094Z,3.67
2019-03-26T17:47:50.303Z,3.33
2019-03-26T17:50:19.118Z,3.20
2019-03-26T17:52:47.908Z,2.90
2019-03-26T17:55:16.607Z,3.47
2019-03-26T17:57:45.152Z,4.70
2019-03-26T18:00:16.933Z,4.80
2019-03-26T18:02:45.872Z,3.90
2019-03-26T18:05:26.139Z,4.37
2019-03-26T18:07:54.883Z,3.43
2019-03-26T18:10:23.685Z,3.63
2019-03-26T18:12:52.583Z,3.43
2019-03-26T18:15:21.334Z,3.60
2019-03-26T18:17:50.451Z,3.33
2019-03-26T18:20:31.850Z,3.90
2019-03-26T18:22:49.516Z,3.23
2019-03-26T18:25:18.304Z,3.73
2019-03-26T18:27:47.086Z,3.83
2019-03-26T18:30:16.225Z,4.03
2019-03-26T18:32:45.131Z,4.20
2019-03-26T18:35:13.757Z,3.47
2019-03-26T18:37:42.570Z,3.47
2019-03-26T18:40:11.680Z,3.70
2019-03-26T18:42:44.305Z,3.83
2019-03-26T18:45:11.873Z,3.43
2019-03-26T18:47:43.373Z,3.20
2019-03-26T18:50:12.378Z,3.23
2019-03-26T18:52:41.180Z,3.30
2019-03-26T18:55:10.050Z,3.67
2019-03-26T18:57:39.229Z,3.10
2019-03-26T19:00:10.301Z,3.13
2019-03-26T19:02:39.335Z,5.60
2019-03-26T19:05:09.825Z,5.10
2019-03-26T19:07:38.572Z,4.40
2019-03-26T19:10:18.824Z,4.87
2019-03-26T19:12:56.802Z,6.03
2019-03-26T19:15:18.021Z,4.13
2019-03-26T19:17:46.793Z,9.87
2019-03-26T19:20:15.565Z,6.27
2019-03-26T19:22:44.212Z,4.57
2019-03-26T19:25:12.743Z,5.40
2019-03-26T19:27:41.659Z,5.97
2019-03-26T19:30:10.532Z,5.33
2019-03-26T19:32:39.345Z,6.47
2019-03-26T19:35:08.041Z,4.90
2019-03-26T19:37:36.704Z,4.37
2019-03-26T19:40:07.306Z,4.50
2019-03-26T19:42:35.873Z,5.50
2019-03-26T19:45:05.057Z,5.30
2019-03-26T19:47:33.814Z,4.50
2019-03-26T19:50:11.565Z,4.43
2019-03-26T19:52:40.252Z,4.43
2019-03-26T19:55:09.707Z,5.27
2019-03-26T19:57:38.649Z,5.03
2019-03-26T20:00:13.520Z,6.60
2019-03-26T20:02:42.506Z,4.83
2019-03-26T20:05:11.370Z,4.13
2019-03-26T20:07:40.859Z,4.87
2019-03-26T20:10:11.587Z,5.67
2019-03-26T20:12:40.345Z,3.93
2019-03-26T20:15:10.584Z,4.60
2019-03-26T20:17:39.390Z,4.73
2019-03-26T20:20:08.689Z,4.50
2019-03-26T20:22:37.463Z,4.47
2019-03-26T20:25:09.381Z,5.00
2019-03-26T20:27:38.094Z,4.90
2019-03-26T20:30:08.089Z,4.70
2019-03-26T20:32:36.891Z,4.37
2019-03-26T20:35:09.159Z,5.70
2019-03-26T20:37:37.904Z,4.20
2019-03-26T20:40:08.693Z,5.03
2019-03-26T20:42:38.277Z,4.50
2019-03-26T20:45:09.836Z,5.60
2019-03-26T20:47:39.125Z,4.60
2019-03-26T20:50:09.978Z,4.10
2019-03-26T20:52:38.702Z,4.20
2019-03-26T20:55:08.893Z,5.53
2019-03-26T20:57:37.669Z,4.20
2019-03-26T21:00:09.567Z,3.80
2019-03-26T21:02:38.270Z,3.80
2019-03-26T21:05:08.228Z,3.57
2019-03-26T21:07:38.043Z,3.47
2019-03-26T21:10:09.669Z,3.40
2019-03-26T21:12:38.549Z,3.67
2019-03-26T21:15:10.269Z,3.67
2019-03-26T21:17:39.363Z,3.43
2019-03-26T21:20:09.583Z,3.40
2019-03-26T21:22:38.653Z,2.83
2019-03-26T21:25:14.502Z,3.60
2019-03-26T21:27:43.133Z,3.70
2019-03-26T21:30:15.730Z,3.37
2019-03-26T21:32:43.969Z,3.40
2019-03-26T21:35:14.426Z,2.87
2019-03-26T21:37:47.263Z,3.77
2019-03-26T21:40:16.281Z,4.00
2019-03-26T21:42:44.785Z,3.57
2019-03-26T21:45:13.913Z,3.20
2019-03-26T21:47:42.560Z,3.70
2019-03-26T21:50:11.158Z,3.57
2019-03-26T21:52:39.929Z,3.40
2019-03-26T21:55:13.200Z,3.30
2019-03-26T21:57:40.779Z,3.60
2019-03-26T22:00:10.321Z,3.83
2019-03-26T22:02:42.291Z,4.40
2019-03-26T22:05:11.820Z,5.40
2019-03-26T22:07:40.437Z,3.93
2019-03-26T22:10:09.312Z,4.13
2019-03-26T22:12:37.905Z,3.40
2019-03-26T22:15:11.022Z,4.73
2019-03-26T22:17:39.911Z,3.70
2019-03-26T22:20:09.202Z,3.97
2019-03-26T22:22:37.745Z,4.60
2019-03-26T22:25:07.450Z,4.30
2019-03-26T22:27:36.357Z,3.73
2019-03-26T22:30:11.992Z,3.87
2019-03-26T22:32:40.731Z,3.73
2019-03-26T22:35:10.861Z,3.63
2019-03-26T22:37:39.715Z,4.17
2019-03-26T22:40:08.941Z,3.53
2019-03-26T22:42:37.674Z,5.10
2019-03-26T22:45:07.806Z,5.10
2019-03-26T22:47:37.749Z,5.70
2019-03-26T22:50:07.769Z,4.63
2019-03-26T22:52:36.289Z,4.57
2019-03-26T22:55:08.148Z,4.50
2019-03-26T22:57:36.927Z,4.30
2019-03-26T23:00:19.598Z,4.83
2019-03-26T23:02:48.237Z,5.70
2019-03-26T23:05:17.421Z,4.53
2019-03-26T23:07:46.258Z,4.87
2019-03-26T23:10:17.082Z,4.87
2019-03-26T23:12:45.774Z,4.80
2019-03-26T23:15:17.608Z,4.47
2019-03-26T23:17:46.460Z,4.33
2019-03-26T23:20:15.528Z,5.07
2019-03-26T23:22:44.058Z,5.13
2019-03-26T23:25:13.089Z,4.93
2019-03-26T23:27:41.775Z,5.27
2019-03-26T23:30:11.249Z,4.80
2019-03-26T23:32:39.759Z,5.67
2019-03-26T23:35:08.582Z,5.23
2019-03-26T23:37:37.299Z,4.87
2019-03-26T23:40:06.335Z,4.90
2019-03-26T23:42:35.072Z,4.90
2019-03-26T23:45:05.851Z,5.03
2019-03-26T23:47:34.759Z,4.40
2019-03-26T23:50:04.560Z,4.13
2019-03-26T23:52:33.112Z,4.40
2019-03-26T23:55:01.614Z,5.67
2019-03-26T23:57:30.155Z,4.73
2019-03-26T23:59:58.802Z,5.13
